sensor_id;sensor_type;location;lat;lon;timestamp;pressure;altitude;pressure_sealevel;temperature;humidity
77799;BME280;66989;50.426;15.352;2023-09-12T00:02:15;97932.72;;;18.18;84.76
77799;BME280;66989;50.426;15.352;2023-09-12T00:04:40;97931.25;;;18.15;84.84
77799;BME280;66989;50.426;15.352;2023-09-12T00:07:06;97930.59;;;18.13;85.36
77799;BME280;66989;50.426;15.352;2023-09-12T00:09:31;97938.94;;;18.10;85.51
77799;BME280;66989;50.426;15.352;2023-09-12T00:11:56;97935.63;;;18.08;85.49
77799;BME280;66989;50.426;15.352;2023-09-12T00:14:22;97934.13;;;18.05;85.76
77799;BME280;66989;50.426;15.352;2023-09-12T00:16:47;97929.97;;;18.03;85.63
77799;BME280;66989;50.426;15.352;2023-09-12T00:19:12;97930.31;;;18.00;85.70
77799;BME280;66989;50.426;15.352;2023-09-12T00:21:39;97927.81;;;17.98;85.94
77799;BME280;66989;50.426;15.352;2023-09-12T00:24:04;97933.97;;;17.99;85.77
77799;BME280;66989;50.426;15.352;2023-09-12T00:26:30;97924.31;;;17.98;85.75
77799;BME280;66989;50.426;15.352;2023-09-12T00:28:56;97926.31;;;17.96;86.00
77799;BME280;66989;50.426;15.352;2023-09-12T00:31:22;97926.31;;;17.96;86.04
77799;BME280;66989;50.426;15.352;2023-09-12T00:33:47;97925.47;;;17.95;86.14
77799;BME280;66989;50.426;15.352;2023-09-12T00:36:12;97926.31;;;17.96;86.16
77799;BME280;66989;50.426;15.352;2023-09-12T00:38:38;97924.47;;;17.96;86.15
77799;BME280;66989;50.426;15.352;2023-09-12T00:41:03;97921.78;;;17.96;85.98
77799;BME280;66989;50.426;15.352;2023-09-12T00:43:28;97926.97;;;17.98;85.84
77799;BME280;66989;50.426;15.352;2023-09-12T00:45:54;97918.97;;;17.98;85.75
77799;BME280;66989;50.426;15.352;2023-09-12T00:48:20;97919.63;;;18.00;85.82
77799;BME280;66989;50.426;15.352;2023-09-12T00:50:48;97919.44;;;18.01;85.38
77799;BME280;66989;50.426;15.352;2023-09-12T00:53:14;97916.63;;;18.03;85.31
77799;BME280;66989;50.426;15.352;2023-09-12T00:55:45;97921.97;;;18.03;85.34
77799;BME280;66989;50.426;15.352;2023-09-12T00:58:12;97927.31;;;18.03;85.15
77799;BME280;66989;50.426;15.352;2023-09-12T01:00:40;97924.78;;;18.01;84.99
77799;BME280;66989;50.426;15.352;2023-09-12T01:03:05;97920.28;;;18.02;84.94
77799;BME280;66989;50.426;15.352;2023-09-12T01:05:31;97922.94;;;18.02;84.89
77799;BME280;66989;50.426;15.352;2023-09-12T01:07:57;97917.97;;;17.99;84.89
77799;BME280;66989;50.426;15.352;2023-09-12T01:10:24;97919.97;;;17.97;85.32
77799;BME280;66989;50.426;15.352;2023-09-12T01:12:50;97919.97;;;17.97;85.22
77799;BME280;66989;50.426;15.352;2023-09-12T01:15:15;97918.47;;;17.94;85.44
77799;BME280;66989;50.426;15.352;2023-09-12T01:17:42;97916.00;;;17.93;85.75
77799;BME280;66989;50.426;15.352;2023-09-12T01:20:14;97915.31;;;17.91;85.95
77799;BME280;66989;50.426;15.352;2023-09-12T01:26:23;97915.66;;;17.87;86.15
77799;BME280;66989;50.426;15.352;2023-09-12T01:28:45;97915.66;;;17.87;86.05
77799;BME280;66989;50.426;15.352;2023-09-12T01:31:10;97912.19;;;17.87;86.06
77799;BME280;66989;50.426;15.352;2023-09-12T01:33:37;97914.84;;;17.87;85.96
77799;BME280;66989;50.426;15.352;2023-09-12T01:36:02;97913.97;;;17.86;86.03
77799;BME280;66989;50.426;15.352;2023-09-12T01:38:28;97918.66;;;17.84;85.95
77799;BME280;66989;50.426;15.352;2023-09-12T01:40:55;97920.69;;;17.82;85.88
77799;BME280;66989;50.426;15.352;2023-09-12T01:43:22;97916.88;;;17.77;85.59
77799;BME280;66989;50.426;15.352;2023-09-12T01:45:52;97919.84;;;17.74;85.89
77799;BME280;66989;50.426;15.352;2023-09-12T01:48:20;97920.03;;;17.72;85.98
77799;BME280;66989;50.426;15.352;2023-09-12T01:50:46;97922.03;;;17.70;85.83
77799;BME280;66989;50.426;15.352;2023-09-12T01:53:12;97922.19;;;17.69;85.64
77799;BME280;66989;50.426;15.352;2023-09-12T01:55:40;97918.69;;;17.68;85.61
77799;BME280;66989;50.426;15.352;2023-09-12T01:58:05;97921.03;;;17.63;85.90
77799;BME280;66989;50.426;15.352;2023-09-12T02:00:32;97932.00;;;17.60;85.59
77799;BME280;66989;50.426;15.352;2023-09-12T02:02:58;97927.03;;;17.57;85.89
77799;BME280;66989;50.426;15.352;2023-09-12T02:05:23;97931.03;;;17.53;86.05
77799;BME280;66989;50.426;15.352;2023-09-12T02:07:49;97927.69;;;17.51;86.11
77799;BME280;66989;50.426;15.352;2023-09-12T02:10:14;97927.00;;;17.49;86.35
77799;BME280;66989;50.426;15.352;2023-09-12T02:12:40;97928.03;;;17.48;86.30
77799;BME280;66989;50.426;15.352;2023-09-12T02:15:07;97919.38;;;17.46;86.49
77799;BME280;66989;50.426;15.352;2023-09-12T02:17:32;97923.84;;;17.45;86.32
77799;BME280;66989;50.426;15.352;2023-09-12T02:19:58;97929.34;;;17.44;86.46
77799;BME280;66989;50.426;15.352;2023-09-12T02:22:23;97940.19;;;17.42;86.29
77799;BME280;66989;50.426;15.352;2023-09-12T02:24:49;97936.19;;;17.38;86.40
77799;BME280;66989;50.426;15.352;2023-09-12T02:27:15;97931.19;;;17.35;86.54
77799;BME280;66989;50.426;15.352;2023-09-12T02:29:41;97928.69;;;17.33;86.82
77799;BME280;66989;50.426;15.352;2023-09-12T02:32:06;97929.69;;;17.32;87.04
77799;BME280;66989;50.426;15.352;2023-09-12T02:34:32;97933.19;;;17.33;87.01
77799;BME280;66989;50.426;15.352;2023-09-12T02:36:58;97938.50;;;17.33;86.72
77799;BME280;66989;50.426;15.352;2023-09-12T02:39:23;97934.00;;;17.33;86.95
77799;BME280;66989;50.426;15.352;2023-09-12T02:41:48;97935.03;;;17.32;87.04
77799;BME280;66989;50.426;15.352;2023-09-12T02:44:14;97932.53;;;17.31;86.94
77799;BME280;66989;50.426;15.352;2023-09-12T02:46:39;97935.50;;;17.28;87.02
77799;BME280;66989;50.426;15.352;2023-09-12T02:49:04;97933.19;;;17.25;87.19
77799;BME280;66989;50.426;15.352;2023-09-12T02:51:30;97931.69;;;17.22;87.88
77799;BME280;66989;50.426;15.352;2023-09-12T02:53:56;97934.34;;;17.22;88.00
77799;BME280;66989;50.426;15.352;2023-09-12T02:56:21;97929.34;;;17.19;88.16
77799;BME280;66989;50.426;15.352;2023-09-12T02:58:47;97936.03;;;17.15;88.04
77799;BME280;66989;50.426;15.352;2023-09-12T03:01:20;97929.19;;;17.13;88.15
77799;BME280;66989;50.426;15.352;2023-09-12T03:03:46;97930.34;;;17.10;88.63
77799;BME280;66989;50.426;15.352;2023-09-12T03:06:12;97935.00;;;17.08;88.57
77799;BME280;66989;50.426;15.352;2023-09-12T03:08:37;97929.84;;;17.06;88.76
77799;BME280;66989;50.426;15.352;2023-09-12T03:11:03;97935.34;;;17.05;88.86
77799;BME280;66989;50.426;15.352;2023-09-12T03:13:28;97935.66;;;17.02;88.82
77799;BME280;66989;50.426;15.352;2023-09-12T03:15:54;97933.31;;;16.99;88.76
77799;BME280;66989;50.426;15.352;2023-09-12T03:18:19;97928.84;;;16.99;88.76
77799;BME280;66989;50.426;15.352;2023-09-12T03:20:44;97933.31;;;16.99;88.54
77799;BME280;66989;50.426;15.352;2023-09-12T03:23:10;97932.47;;;16.98;88.63
77799;BME280;66989;50.426;15.352;2023-09-12T03:25:38;97938.63;;;16.99;88.29
77799;BME280;66989;50.426;15.352;2023-09-12T03:28:05;97930.50;;;17.00;88.17
77799;BME280;66989;50.426;15.352;2023-09-12T03:30:35;97938.31;;;17.02;88.03
77799;BME280;66989;50.426;15.352;2023-09-12T03:33:01;97936.66;;;17.01;88.06
77799;BME280;66989;50.426;15.352;2023-09-12T03:35:28;97932.00;;;17.03;87.62
77799;BME280;66989;50.426;15.352;2023-09-12T03:37:53;97929.19;;;17.04;87.75
77799;BME280;66989;50.426;15.352;2023-09-12T03:40:19;97937.66;;;17.08;87.44
77799;BME280;66989;50.426;15.352;2023-09-12T03:42:44;97929.34;;;17.11;87.60
77799;BME280;66989;50.426;15.352;2023-09-12T03:45:10;97929.00;;;17.14;87.40
77799;BME280;66989;50.426;15.352;2023-09-12T03:47:35;97929.69;;;17.16;87.30
77799;BME280;66989;50.426;15.352;2023-09-12T03:50:01;97927.69;;;17.18;87.06
77799;BME280;66989;50.426;15.352;2023-09-12T03:52:27;97925.84;;;17.19;86.78
77799;BME280;66989;50.426;15.352;2023-09-12T03:54:52;97924.00;;;17.19;87.02
77799;BME280;66989;50.426;15.352;2023-09-12T03:57:18;97927.34;;;17.21;86.80
77799;BME280;66989;50.426;15.352;2023-09-12T03:59:43;97917.72;;;17.20;86.50
77799;BME280;66989;50.426;15.352;2023-09-12T04:02:08;97925.69;;;17.20;86.55
77799;BME280;66989;50.426;15.352;2023-09-12T04:04:34;97925.00;;;17.18;86.25
77799;BME280;66989;50.426;15.352;2023-09-12T04:06:59;97926.69;;;17.19;86.61
77799;BME280;66989;50.426;15.352;2023-09-12T04:09:25;97927.69;;;17.18;86.25
77799;BME280;66989;50.426;15.352;2023-09-12T04:11:50;97925.19;;;17.17;86.43
77799;BME280;66989;50.426;15.352;2023-09-12T04:14:15;97930.84;;;17.14;86.46
77799;BME280;66989;50.426;15.352;2023-09-12T04:16:41;97927.69;;;17.10;86.33
77799;BME280;66989;50.426;15.352;2023-09-12T04:19:06;97933.50;;;17.05;86.83
77799;BME280;66989;50.426;15.352;2023-09-12T04:21:31;97930.34;;;17.02;87.09
77799;BME280;66989;50.426;15.352;2023-09-12T04:23:57;97932.47;;;16.98;87.26
77799;BME280;66989;50.426;15.352;2023-09-12T04:26:22;97941.47;;;16.97;87.18
77799;BME280;66989;50.426;15.352;2023-09-12T04:28:48;97931.81;;;16.96;87.43
77799;BME280;66989;50.426;15.352;2023-09-12T04:31:13;97936.97;;;16.98;87.44
77799;BME280;66989;50.426;15.352;2023-09-12T04:33:38;97930.34;;;17.02;87.08
77799;BME280;66989;50.426;15.352;2023-09-12T04:36:04;97942.50;;;17.04;86.97
77799;BME280;66989;50.426;15.352;2023-09-12T04:38:30;97937.84;;;17.06;87.16
77799;BME280;66989;50.426;15.352;2023-09-12T04:40:56;97946.66;;;17.07;86.66
77799;BME280;66989;50.426;15.352;2023-09-12T04:43:22;97937.66;;;17.08;86.54
77799;BME280;66989;50.426;15.352;2023-09-12T04:45:48;97935.69;;;17.10;86.30
77799;BME280;66989;50.426;15.352;2023-09-12T04:48:13;97933.69;;;17.12;86.06
77799;BME280;66989;50.426;15.352;2023-09-12T04:50:42;97942.50;;;17.13;86.27
77799;BME280;66989;50.426;15.352;2023-09-12T04:53:07;97930.69;;;17.15;85.79
77799;BME280;66989;50.426;15.352;2023-09-12T04:55:35;97940.16;;;17.18;85.67
77799;BME280;66989;50.426;15.352;2023-09-12T04:58:01;97932.88;;;17.20;85.63
77799;BME280;66989;50.426;15.352;2023-09-12T05:00:26;97925.34;;;17.23;85.75
77799;BME280;66989;50.426;15.352;2023-09-12T05:02:52;97932.19;;;17.26;85.60
77799;BME280;66989;50.426;15.352;2023-09-12T05:05:17;97925.69;;;17.28;85.33
77799;BME280;66989;50.426;15.352;2023-09-12T05:07:42;97936.34;;;17.36;85.55
77799;BME280;66989;50.426;15.352;2023-09-12T05:10:08;97931.69;;;17.47;85.35
77799;BME280;66989;50.426;15.352;2023-09-12T05:12:33;97931.53;;;17.56;85.23
77799;BME280;66989;50.426;15.352;2023-09-12T05:14:58;97928.03;;;17.64;84.77
77799;BME280;66989;50.426;15.352;2023-09-12T05:17:24;97931.53;;;17.73;84.65
77799;BME280;66989;50.426;15.352;2023-09-12T05:19:49;97943.19;;;17.80;83.93
77799;BME280;66989;50.426;15.352;2023-09-12T05:22:15;97944.50;;;17.84;83.36
77799;BME280;66989;50.426;15.352;2023-09-12T05:24:40;97955.19;;;17.84;82.64
77799;BME280;66989;50.426;15.352;2023-09-12T05:27:05;97944.50;;;17.84;82.39
77799;BME280;66989;50.426;15.352;2023-09-12T05:29:31;97940.00;;;17.84;82.30
77799;BME280;66989;50.426;15.352;2023-09-12T05:31:56;97950.34;;;17.87;82.37
77799;BME280;66989;50.426;15.352;2023-09-12T05:34:22;97946.66;;;17.88;82.51
77799;BME280;66989;50.426;15.352;2023-09-12T05:36:47;97944.31;;;17.94;82.71
77799;BME280;66989;50.426;15.352;2023-09-12T05:39:12;97934.81;;;17.99;82.54
77799;BME280;66989;50.426;15.352;2023-09-12T05:41:39;97944.63;;;18.07;82.49
77799;BME280;66989;50.426;15.352;2023-09-12T05:44:04;97942.25;;;18.12;82.47
77799;BME280;66989;50.426;15.352;2023-09-12T05:46:30;97939.09;;;18.17;82.39
77799;BME280;66989;50.426;15.352;2023-09-12T05:48:55;97943.56;;;18.24;82.24
77799;BME280;66989;50.426;15.352;2023-09-12T05:51:21;97943.06;;;18.29;82.22
77799;BME280;66989;50.426;15.352;2023-09-12T05:53:46;97942.88;;;18.38;81.75
77799;BME280;66989;50.426;15.352;2023-09-12T05:56:11;97946.13;;;18.49;81.47
77799;BME280;66989;50.426;15.352;2023-09-12T05:58:37;97947.44;;;18.61;81.12
77799;BME280;66989;50.426;15.352;2023-09-12T06:01:06;97952.69;;;18.85;80.27
77799;BME280;66989;50.426;15.352;2023-09-12T06:03:32;97946.81;;;19.13;79.71
77799;BME280;66989;50.426;15.352;2023-09-12T06:05:58;97953.13;;;19.43;78.61
77799;BME280;66989;50.426;15.352;2023-09-12T06:08:24;97949.22;;;19.68;77.43
77799;BME280;66989;50.426;15.352;2023-09-12T06:10:49;97955.84;;;19.95;76.46
77799;BME280;66989;50.426;15.352;2023-09-12T06:13:19;97960.00;;;20.28;74.91
77799;BME280;66989;50.426;15.352;2023-09-12T06:15:44;97959.81;;;20.59;74.07
77799;BME280;66989;50.426;15.352;2023-09-12T06:18:09;97954.91;;;20.92;72.89
77799;BME280;66989;50.426;15.352;2023-09-12T06:20:35;97945.34;;;21.25;71.52
77799;BME280;66989;50.426;15.352;2023-09-12T06:23:00;97957.06;;;21.61;70.19
77799;BME280;66989;50.426;15.352;2023-09-12T06:25:25;97948.47;;;22.00;69.83
77799;BME280;66989;50.426;15.352;2023-09-12T06:27:51;97951.28;;;22.48;68.69
77799;BME280;66989;50.426;15.352;2023-09-12T06:30:16;97942.34;;;22.89;67.03
77799;BME280;66989;50.426;15.352;2023-09-12T06:32:42;97942.88;;;23.32;65.01
77799;BME280;66989;50.426;15.352;2023-09-12T06:35:07;97944.38;;;23.74;64.12
77799;BME280;66989;50.426;15.352;2023-09-12T06:37:35;97944.16;;;24.16;63.09
77799;BME280;66989;50.426;15.352;2023-09-12T06:40:01;97942.84;;;24.45;61.24
77799;BME280;66989;50.426;15.352;2023-09-12T06:42:26;97942.53;;;24.73;60.34
77799;BME280;66989;50.426;15.352;2023-09-12T06:44:51;97951.84;;;24.77;59.80
77799;BME280;66989;50.426;15.352;2023-09-12T06:47:16;97953.91;;;24.81;59.13
77799;BME280;66989;50.426;15.352;2023-09-12T06:49:42;97947.09;;;24.72;59.09
77799;BME280;66989;50.426;15.352;2023-09-12T06:52:07;97951.84;;;24.77;59.24
77799;BME280;66989;50.426;15.352;2023-09-12T06:54:34;97952.44;;;24.92;59.47
77799;BME280;66989;50.426;15.352;2023-09-12T06:57:00;97948.72;;;25.25;58.46
77799;BME280;66989;50.426;15.352;2023-09-12T06:59:25;97943.81;;;25.47;57.33
77799;BME280;66989;50.426;15.352;2023-09-12T07:01:51;97950.88;;;25.48;57.49
77799;BME280;66989;50.426;15.352;2023-09-12T07:04:16;97947.94;;;25.81;57.27
77799;BME280;66989;50.426;15.352;2023-09-12T07:06:42;97953.56;;;26.23;57.11
77799;BME280;66989;50.426;15.352;2023-09-12T07:09:08;97949.41;;;26.63;56.20
77799;BME280;66989;50.426;15.352;2023-09-12T07:11:34;97945.03;;;26.81;54.33
77799;BME280;66989;50.426;15.352;2023-09-12T07:14:00;97945.13;;;26.74;53.35
77799;BME280;66989;50.426;15.352;2023-09-12T07:16:25;97944.72;;;26.89;53.55
77799;BME280;66989;50.426;15.352;2023-09-12T07:18:51;97947.94;;;27.16;53.07
77799;BME280;66989;50.426;15.352;2023-09-12T07:21:16;97954.56;;;27.32;52.48
77799;BME280;66989;50.426;15.352;2023-09-12T07:23:42;97948.34;;;27.31;52.06
77799;BME280;66989;50.426;15.352;2023-09-12T07:26:12;97952.34;;;27.29;52.55
77799;BME280;66989;50.426;15.352;2023-09-12T07:28:39;97952.00;;;27.37;52.42
77799;BME280;66989;50.426;15.352;2023-09-12T07:31:04;97948.88;;;27.63;52.27
77799;BME280;66989;50.426;15.352;2023-09-12T07:33:29;97954.50;;;27.92;51.36
77799;BME280;66989;50.426;15.352;2023-09-12T07:35:55;97958.75;;;28.11;50.37
77799;BME280;66989;50.426;15.352;2023-09-12T07:38:21;97958.03;;;28.04;49.08
77799;BME280;66989;50.426;15.352;2023-09-12T07:40:46;97947.31;;;27.97;50.08
77799;BME280;66989;50.426;15.352;2023-09-12T07:43:12;97948.50;;;28.25;49.51
77799;BME280;66989;50.426;15.352;2023-09-12T07:45:38;97943.78;;;28.32;48.62
77799;BME280;66989;50.426;15.352;2023-09-12T07:48:07;97950.47;;;28.65;48.29
77799;BME280;66989;50.426;15.352;2023-09-12T07:50:33;97948.81;;;28.75;46.86
77799;BME280;66989;50.426;15.352;2023-09-12T07:52:58;97949.00;;;28.86;47.14
77799;BME280;66989;50.426;15.352;2023-09-12T07:55:23;97952.50;;;28.98;47.09
77799;BME280;66989;50.426;15.352;2023-09-12T07:57:49;97950.31;;;29.23;47.17
77799;BME280;66989;50.426;15.352;2023-09-12T08:00:14;97947.50;;;29.64;45.96
77799;BME280;66989;50.426;15.352;2023-09-12T08:02:39;97947.25;;;29.65;45.16
77799;BME280;66989;50.426;15.352;2023-09-12T08:05:05;97942.38;;;29.50;46.22
77799;BME280;66989;50.426;15.352;2023-09-12T08:07:31;97946.56;;;29.87;46.18
77799;BME280;66989;50.426;15.352;2023-09-12T08:09:57;97943.81;;;30.03;45.26
77799;BME280;66989;50.426;15.352;2023-09-12T08:12:24;97945.72;;;30.03;44.83
77799;BME280;66989;50.426;15.352;2023-09-12T08:14:51;97951.53;;;30.28;44.57
77799;BME280;66989;50.426;15.352;2023-09-12T08:17:17;97945.53;;;30.65;44.02
77799;BME280;66989;50.426;15.352;2023-09-12T08:19:42;97946.50;;;30.76;42.65
77799;BME280;66989;50.426;15.352;2023-09-12T08:22:10;97955.59;;;30.87;41.74
77799;BME280;66989;50.426;15.352;2023-09-12T08:24:36;97955.81;;;31.02;42.30
77799;BME280;66989;50.426;15.352;2023-09-12T08:27:02;97952.72;;;31.20;41.89
77799;BME280;66989;50.426;15.352;2023-09-12T08:29:28;97950.81;;;31.43;41.93
77799;BME280;66989;50.426;15.352;2023-09-12T08:31:55;97951.13;;;31.73;41.54
77799;BME280;66989;50.426;15.352;2023-09-12T08:34:21;97956.59;;;31.51;40.74
77799;BME280;66989;50.426;15.352;2023-09-12T08:36:46;97962.63;;;31.26;41.15
77799;BME280;66989;50.426;15.352;2023-09-12T08:39:15;97961.94;;;30.92;41.77
77799;BME280;66989;50.426;15.352;2023-09-12T08:41:42;97959.41;;;30.86;41.87
77799;BME280;66989;50.426;15.352;2023-09-12T08:44:08;97957.97;;;30.39;42.86
77799;BME280;66989;50.426;15.352;2023-09-12T08:46:34;97962.34;;;30.07;42.79
77799;BME280;66989;50.426;15.352;2023-09-12T08:49:00;97966.56;;;29.97;43.80
77799;BME280;66989;50.426;15.352;2023-09-12T08:51:25;97967.13;;;29.99;43.63
77799;BME280;66989;50.426;15.352;2023-09-12T08:53:52;97970.03;;;29.93;43.59
77799;BME280;66989;50.426;15.352;2023-09-12T08:56:17;97965.72;;;29.80;43.77
77799;BME280;66989;50.426;15.352;2023-09-12T08:58:43;97957.19;;;29.71;44.62
77799;BME280;66989;50.426;15.352;2023-09-12T09:01:11;97965.34;;;29.71;44.69
77799;BME280;66989;50.426;15.352;2023-09-12T09:03:38;97950.91;;;30.04;44.45
77799;BME280;66989;50.426;15.352;2023-09-12T09:06:06;97959.44;;;30.47;43.35
77799;BME280;66989;50.426;15.352;2023-09-12T09:08:33;97958.44;;;30.53;43.07
77799;BME280;66989;50.426;15.352;2023-09-12T09:11:00;97961.94;;;30.48;42.67
77799;BME280;66989;50.426;15.352;2023-09-12T09:13:31;97959.38;;;30.25;42.99
77799;BME280;66989;50.426;15.352;2023-09-12T09:16:13;97963.72;;;30.43;43.54
77799;BME280;66989;50.426;15.352;2023-09-12T09:18:56;97963.06;;;30.52;43.28
77799;BME280;66989;50.426;15.352;2023-09-12T09:21:25;97958.63;;;30.68;42.87
77799;BME280;66989;50.426;15.352;2023-09-12T09:23:52;97956.69;;;30.86;42.24
77799;BME280;66989;50.426;15.352;2023-09-12T09:26:18;97963.56;;;30.93;42.00
77799;BME280;66989;50.426;15.352;2023-09-12T09:28:44;97951.41;;;30.96;42.04
77799;BME280;66989;50.426;15.352;2023-09-12T09:31:10;97948.16;;;30.99;42.39
77799;BME280;66989;50.426;15.352;2023-09-12T09:33:36;97946.41;;;31.15;42.17
77799;BME280;66989;50.426;15.352;2023-09-12T09:36:05;97943.78;;;31.25;42.08
77799;BME280;66989;50.426;15.352;2023-09-12T09:38:30;97938.72;;;31.33;42.42
77799;BME280;66989;50.426;15.352;2023-09-12T09:40:56;97938.47;;;31.62;40.99
77799;BME280;66989;50.426;15.352;2023-09-12T09:43:22;97936.72;;;32.15;40.55
77799;BME280;66989;50.426;15.352;2023-09-12T09:45:47;97935.19;;;32.29;39.99
77799;BME280;66989;50.426;15.352;2023-09-12T09:48:23;97935.63;;;32.16;40.70
77799;BME280;66989;50.426;15.352;2023-09-12T09:50:49;97937.25;;;32.59;39.85
77799;BME280;66989;50.426;15.352;2023-09-12T09:53:15;97933.31;;;32.88;38.90
77799;BME280;66989;50.426;15.352;2023-09-12T09:55:40;97932.00;;;32.48;39.45
77799;BME280;66989;50.426;15.352;2023-09-12T09:58:07;97927.97;;;32.60;39.85
77799;BME280;66989;50.426;15.352;2023-09-12T10:00:39;97926.69;;;32.73;39.29
77799;BME280;66989;50.426;15.352;2023-09-12T10:03:05;97918.22;;;32.75;39.34
77799;BME280;66989;50.426;15.352;2023-09-12T10:05:32;97922.13;;;32.99;38.90
77799;BME280;66989;50.426;15.352;2023-09-12T10:07:57;97927.63;;;33.09;39.29
77799;BME280;66989;50.426;15.352;2023-09-12T10:10:24;97913.25;;;33.75;37.73
77799;BME280;66989;50.426;15.352;2023-09-12T10:12:56;97915.66;;;34.48;36.58
77799;BME280;66989;50.426;15.352;2023-09-12T10:15:23;97910.56;;;34.81;36.19
77799;BME280;66989;50.426;15.352;2023-09-12T10:18:01;97913.53;;;35.44;35.91
77799;BME280;66989;50.426;15.352;2023-09-12T10:20:35;97906.66;;;35.86;34.68
77799;BME280;66989;50.426;15.352;2023-09-12T10:25:50;97904.13;;;35.89;33.97
77799;BME280;66989;50.426;15.352;2023-09-12T10:28:17;97901.13;;;35.91;34.00
77799;BME280;66989;50.426;15.352;2023-09-12T10:30:42;97898.00;;;36.27;33.91
77799;BME280;66989;50.426;15.352;2023-09-12T10:33:09;97896.22;;;36.41;33.63
77799;BME280;66989;50.426;15.352;2023-09-12T10:35:37;97902.06;;;36.82;33.24
77799;BME280;66989;50.426;15.352;2023-09-12T10:38:05;97897.00;;;36.46;32.92
77799;BME280;66989;50.426;15.352;2023-09-12T10:40:35;97902.53;;;36.41;33.27
77799;BME280;66989;50.426;15.352;2023-09-12T10:43:02;97893.28;;;36.08;33.21
77799;BME280;66989;50.426;15.352;2023-09-12T10:45:31;97896.97;;;35.20;34.43
77799;BME280;66989;50.426;15.352;2023-09-12T10:47:58;97892.16;;;35.75;34.57
77799;BME280;66989;50.426;15.352;2023-09-12T10:50:24;97894.06;;;35.80;34.24
77799;BME280;66989;50.426;15.352;2023-09-12T10:52:49;97887.25;;;36.06;34.29
77799;BME280;66989;50.426;15.352;2023-09-12T10:55:16;97893.22;;;36.37;33.98
77799;BME280;66989;50.426;15.352;2023-09-12T10:58:02;97884.88;;;37.14;32.81
77799;BME280;66989;50.426;15.352;2023-09-12T11:00:28;97877.50;;;37.80;32.22
77799;BME280;66989;50.426;15.352;2023-09-12T11:02:53;97865.69;;;38.54;31.38
77799;BME280;66989;50.426;15.352;2023-09-12T11:08:00;97863.63;;;39.59;29.00
77799;BME280;66989;50.426;15.352;2023-09-12T11:10:27;97871.72;;;39.19;29.67
77799;BME280;66989;50.426;15.352;2023-09-12T11:12:54;97874.06;;;38.62;30.27
77799;BME280;66989;50.426;15.352;2023-09-12T11:15:24;97873.25;;;38.62;30.80
77799;BME280;66989;50.426;15.352;2023-09-12T11:18:00;97872.13;;;38.35;30.55
77799;BME280;66989;50.426;15.352;2023-09-12T11:23:14;97873.25;;;37.55;31.90
77799;BME280;66989;50.426;15.352;2023-09-12T11:25:40;97877.09;;;37.73;31.54
77799;BME280;66989;50.426;15.352;2023-09-12T11:28:05;97878.69;;;37.41;31.52
77799;BME280;66989;50.426;15.352;2023-09-12T11:30:31;97880.94;;;37.02;31.95
77799;BME280;66989;50.426;15.352;2023-09-12T11:32:57;97887.34;;;37.16;32.18
77799;BME280;66989;50.426;15.352;2023-09-12T11:35:28;97875.88;;;37.79;31.36
77799;BME280;66989;50.426;15.352;2023-09-12T11:37:57;97871.41;;;38.57;30.87
77799;BME280;66989;50.426;15.352;2023-09-12T11:40:25;97868.03;;;39.24;30.01
77799;BME280;66989;50.426;15.352;2023-09-12T11:42:52;97866.88;;;39.84;29.08
77799;BME280;66989;50.426;15.352;2023-09-12T11:45:19;97864.97;;;40.64;28.45
77799;BME280;66989;50.426;15.352;2023-09-12T11:47:45;97866.66;;;40.82;27.22
77799;BME280;66989;50.426;15.352;2023-09-12T11:50:30;97868.69;;;41.25;26.95
77799;BME280;66989;50.426;15.352;2023-09-12T11:53:04;97869.00;;;41.49;25.69
77799;BME280;66989;50.426;15.352;2023-09-12T11:55:35;97869.31;;;41.22;25.83
77799;BME280;66989;50.426;15.352;2023-09-12T11:58:01;97867.38;;;40.17;27.04
77799;BME280;66989;50.426;15.352;2023-09-12T12:00:28;97871.78;;;39.87;27.99
77799;BME280;66989;50.426;15.352;2023-09-12T12:02:54;97868.13;;;40.31;27.07
77799;BME280;66989;50.426;15.352;2023-09-12T12:05:21;97873.72;;;41.23;26.75
77799;BME280;66989;50.426;15.352;2023-09-12T12:07:48;97863.56;;;42.43;25.83
77799;BME280;66989;50.426;15.352;2023-09-12T12:10:14;97869.22;;;43.35;24.67
77799;BME280;66989;50.426;15.352;2023-09-12T12:12:39;97863.25;;;44.24;23.47
77799;BME280;66989;50.426;15.352;2023-09-12T12:15:09;97866.16;;;44.89;22.28
77799;BME280;66989;50.426;15.352;2023-09-12T12:17:36;97866.03;;;45.38;22.20
77799;BME280;66989;50.426;15.352;2023-09-12T12:20:02;97867.75;;;45.14;21.40
77799;BME280;66989;50.426;15.352;2023-09-12T12:22:32;97858.50;;;45.38;22.62
77799;BME280;66989;50.426;15.352;2023-09-12T12:25:06;97854.19;;;45.13;21.28
77799;BME280;66989;50.426;15.352;2023-09-12T12:27:31;97856.63;;;44.90;21.16
77799;BME280;66989;50.426;15.352;2023-09-12T12:29:56;97851.56;;;44.31;21.68
77799;BME280;66989;50.426;15.352;2023-09-12T12:32:23;97854.56;;;44.26;22.29
77799;BME280;66989;50.426;15.352;2023-09-12T12:34:49;97851.06;;;45.02;21.95
77799;BME280;66989;50.426;15.352;2023-09-12T12:37:14;97854.53;;;45.67;21.31
77799;BME280;66989;50.426;15.352;2023-09-12T12:39:42;97847.44;;;46.45;21.02
77799;BME280;66989;50.426;15.352;2023-09-12T12:42:08;97851.53;;;46.99;20.44
77799;BME280;66989;50.426;15.352;2023-09-12T12:44:34;97849.06;;;47.52;20.05
77799;BME280;66989;50.426;15.352;2023-09-12T12:47:04;97841.63;;;48.02;18.83
77799;BME280;66989;50.426;15.352;2023-09-12T12:49:36;97836.22;;;47.12;18.94
77799;BME280;66989;50.426;15.352;2023-09-12T12:52:02;97839.81;;;45.39;20.76
77799;BME280;66989;50.426;15.352;2023-09-12T12:54:31;97839.59;;;45.32;21.01
77799;BME280;66989;50.426;15.352;2023-09-12T12:56:57;97843.38;;;44.01;21.97
77799;BME280;66989;50.426;15.352;2023-09-12T12:59:23;97841.28;;;43.86;22.52